Time;durP1;ratioP1;P1;durP2;ratioP2;P2;SDS_P1;SDS_P2;PMS_P1;PMS_P2;Temp;Humidity;BMP_temperature;BMP_pressure;BME280_temperature;BME280_humidity;BME280_pressure;Samples;Min_cycle;Max_cycle;Signal;HPM_P1;HPM_P2
2023/06/25 00:00:17;;;;;;;4.43;2.67;;;24.40;61.40;;;;;;4972289;28;20043;-59
2023/06/25 00:02:43;;;;;;;4.40;3.10;;;24.30;61.40;;;;;;4990859;28;20046;-59
2023/06/25 00:05:09;;;;;;;4.40;2.75;;;24.30;61.30;;;;;;4991602;28;20502;-59
2023/06/25 00:07:35;;;;;;;4.43;2.65;;;24.30;61.30;;;;;;4991129;28;20470;-59
2023/06/25 00:10:01;;;;;;;3.58;2.42;;;24.30;61.30;;;;;;4992145;28;20125;-59
2023/06/25 00:12:26;;;;;;;4.28;2.67;;;24.40;61.40;;;;;;4991440;28;20122;-59
2023/06/25 00:14:52;;;;;;;4.50;3.05;;;24.40;61.40;;;;;;4991827;28;20062;-59
2023/06/25 00:17:17;;;;;;;5.00;2.55;;;24.40;61.40;;;;;;4992060;28;20046;-59
2023/06/25 00:19:44;;;;;;;3.80;2.55;;;24.30;61.30;;;;;;4991293;28;20402;-59
2023/06/25 00:22:11;;;;;;;3.72;2.65;;;24.30;61.40;;;;;;4991832;28;20049;-59
2023/06/25 00:24:39;;;;;;;3.90;2.67;;;24.30;61.40;;;;;;4992239;28;20046;-59
2023/06/25 00:27:06;;;;;;;4.30;2.88;;;24.30;61.40;;;;;;4989628;28;20409;-59
2023/06/25 00:29:32;;;;;;;4.55;2.67;;;24.30;61.40;;;;;;4995279;28;20108;-59
2023/06/25 00:31:57;;;;;;;4.57;2.83;;;24.30;61.40;;;;;;4994727;28;20042;-59
2023/06/25 00:34:23;;;;;;;5.53;2.95;;;24.30;61.40;;;;;;4994981;28;20046;-59
2023/06/25 00:36:51;;;;;;;3.45;2.47;;;24.30;61.40;;;;;;4994596;28;20058;-59
2023/06/25 00:39:18;;;;;;;4.45;2.78;;;24.30;61.40;;;;;;4995528;28;20150;-59
2023/06/25 00:41:44;;;;;;;3.53;2.38;;;24.30;61.40;;;;;;4994158;28;20051;-59
2023/06/25 00:44:09;;;;;;;4.72;2.80;;;24.30;61.40;;;;;;4981556;28;20046;-59
2023/06/25 00:46:35;;;;;;;4.35;2.75;;;24.30;61.40;;;;;;4984980;28;20070;-59
2023/06/25 00:49:06;;;;;;;3.70;2.47;;;24.30;61.40;;;;;;4973090;28;20043;-59
2023/06/25 00:51:35;;;;;;;4.13;2.75;;;24.30;61.40;;;;;;4975558;28;20039;-59
2023/06/25 00:54:05;;;;;;;3.95;2.83;;;24.30;61.40;;;;;;4975495;28;20062;-59
2023/06/25 00:56:34;;;;;;;5.50;2.75;;;24.30;61.40;;;;;;4974836;28;20041;-59
2023/06/25 00:59:01;;;;;;;4.30;2.80;;;24.30;61.40;;;;;;4975022;28;20043;-59
2023/06/25 01:01:36;;;;;;;3.80;2.88;;;24.30;61.40;;;;;;4979177;28;20038;-58
2023/06/25 01:04:19;;;;;;;3.85;2.50;;;24.30;61.40;;;;;;4984811;28;20053;-58
2023/06/25 01:06:47;;;;;;;3.72;2.75;;;24.20;61.40;;;;;;4986217;28;20039;-58
2023/06/25 01:09:12;;;;;;;3.88;2.70;;;24.20;61.40;;;;;;4973177;28;20050;-58
2023/06/25 01:11:38;;;;;;;4.22;2.65;;;24.20;61.40;;;;;;4974853;28;20045;-59
2023/06/25 01:14:04;;;;;;;4.40;2.50;;;24.30;61.40;;;;;;4974564;28;20047;-58
2023/06/25 01:16:30;;;;;;;3.60;2.65;;;24.20;61.40;;;;;;4974622;28;20043;-59
2023/06/25 01:18:58;;;;;;;4.05;2.72;;;24.20;61.40;;;;;;4973626;28;20070;-60
2023/06/25 01:21:26;;;;;;;3.72;2.47;;;24.30;61.40;;;;;;4975267;28;20046;-59
2023/06/25 01:23:52;;;;;;;3.80;2.50;;;24.30;61.50;;;;;;4974181;28;20051;-59
2023/06/25 01:26:18;;;;;;;3.70;2.90;;;24.30;61.50;;;;;;4975044;28;20050;-59
2023/06/25 01:28:44;;;;;;;5.53;3.03;;;24.20;61.40;;;;;;4975661;28;20043;-59
2023/06/25 01:31:09;;;;;;;3.97;2.58;;;24.20;61.40;;;;;;4993141;28;20038;-59
2023/06/25 01:33:35;;;;;;;4.45;3.22;;;24.20;61.40;;;;;;4994236;28;20034;-60
2023/06/25 01:36:01;;;;;;;3.67;2.70;;;24.20;61.40;;;;;;4993469;28;20140;-60
2023/06/25 01:38:26;;;;;;;4.75;2.92;;;24.20;61.40;;;;;;4993972;28;20478;-60
2023/06/25 01:40:52;;;;;;;5.20;2.90;;;24.20;61.40;;;;;;4993158;28;20057;-60
2023/06/25 01:43:18;;;;;;;5.00;2.80;;;24.20;61.40;;;;;;4994001;28;20038;-60
2023/06/25 01:45:43;;;;;;;4.22;2.72;;;24.20;61.40;;;;;;4993220;28;20489;-60
2023/06/25 01:48:09;;;;;;;3.15;2.30;;;24.20;61.50;;;;;;4977130;28;20047;-60
2023/06/25 01:50:35;;;;;;;3.85;2.72;;;24.20;61.50;;;;;;4974700;28;20074;-60
2023/06/25 01:53:01;;;;;;;3.60;2.60;;;24.20;61.50;;;;;;4973311;28;20077;-60
2023/06/25 01:55:26;;;;;;;3.13;2.55;;;24.20;61.40;;;;;;4974475;28;20043;-59
2023/06/25 01:57:52;;;;;;;3.55;2.30;;;24.20;61.40;;;;;;4973702;28;20105;-60
2023/06/25 02:00:17;;;;;;;3.60;2.40;;;24.20;61.50;;;;;;4976205;28;20031;-59
2023/06/25 02:02:43;;;;;;;3.92;2.58;;;24.20;61.40;;;;;;4981307;28;20042;-59
2023/06/25 02:05:09;;;;;;;5.07;2.75;;;24.20;61.40;;;;;;4972809;28;20042;-60
2023/06/25 02:07:34;;;;;;;4.00;2.33;;;24.20;61.50;;;;;;4974323;28;20137;-60
2023/06/25 02:10:00;;;;;;;3.55;2.50;;;24.20;61.50;;;;;;4974041;28;20046;-59
2023/06/25 02:12:26;;;;;;;4.03;2.60;;;24.20;61.50;;;;;;4973621;28;20074;-59
2023/06/25 02:14:51;;;;;;;3.78;2.78;;;24.20;61.50;;;;;;4973883;28;20039;-59
2023/06/25 02:17:17;;;;;;;3.78;2.45;;;24.20;61.50;;;;;;4974264;28;20548;-60
2023/06/25 02:19:42;;;;;;;3.38;2.53;;;24.20;61.50;;;;;;4973460;28;20065;-59
2023/06/25 02:22:08;;;;;;;4.10;2.70;;;24.20;61.50;;;;;;4973820;28;20046;-59
2023/06/25 02:24:33;;;;;;;3.80;2.33;;;24.20;61.50;;;;;;4973887;28;20390;-60
2023/06/25 02:26:59;;;;;;;3.67;2.50;;;24.20;61.50;;;;;;4980454;28;20073;-60
2023/06/25 02:29:24;;;;;;;3.67;2.78;;;24.20;61.50;;;;;;4993594;28;20485;-59
2023/06/25 02:31:50;;;;;;;3.78;2.45;;;24.10;61.50;;;;;;4989401;28;20089;-60
2023/06/25 02:34:19;;;;;;;4.82;2.90;;;24.10;61.40;;;;;;4973048;28;20050;-60
2023/06/25 02:36:45;;;;;;;3.50;2.40;;;24.10;61.50;;;;;;4973958;28;20066;-60
2023/06/25 02:39:10;;;;;;;3.92;2.70;;;24.10;61.50;;;;;;4973575;28;20042;-60
2023/06/25 02:41:36;;;;;;;3.55;2.58;;;24.10;61.40;;;;;;4973074;28;20050;-60
2023/06/25 02:44:01;;;;;;;4.07;2.45;;;24.20;61.50;;;;;;4973597;28;20461;-60
2023/06/25 02:46:27;;;;;;;4.00;2.38;;;24.10;61.50;;;;;;4973730;28;20047;-60
2023/06/25 02:48:53;;;;;;;4.47;2.50;;;24.10;61.50;;;;;;4972909;28;20042;-59
2023/06/25 02:51:18;;;;;;;3.88;2.47;;;24.10;61.50;;;;;;4973659;28;20540;-60
2023/06/25 02:53:44;;;;;;;4.13;2.60;;;24.10;61.50;;;;;;4973912;28;20053;-60
2023/06/25 02:56:09;;;;;;;3.70;2.53;;;24.10;61.50;;;;;;4972844;28;20047;-60
2023/06/25 02:58:35;;;;;;;3.65;2.50;;;24.10;62.10;;;;;;4973527;28;20057;-59
2023/06/25 03:01:01;;;;;;;3.72;2.40;;;24.10;61.50;;;;;;4972901;28;20101;-59
2023/06/25 03:03:26;;;;;;;4.40;3.03;;;24.10;61.50;;;;;;4973324;28;20042;-60
2023/06/25 03:05:53;;;;;;;4.15;2.78;;;24.10;61.50;;;;;;4973426;28;20089;-59
2023/06/25 03:08:18;;;;;;;4.30;3.08;;;24.10;61.50;;;;;;4972485;28;20089;-59
2023/06/25 03:10:44;;;;;;;4.88;2.90;;;24.10;61.60;;;;;;4973286;28;20055;-60
2023/06/25 03:13:11;;;;;;;3.63;2.55;;;24.10;61.60;;;;;;4973327;28;20058;-59
2023/06/25 03:15:37;;;;;;;4.60;2.60;;;24.10;61.50;;;;;;4972774;28;20050;-59
2023/06/25 03:18:02;;;;;;;3.67;2.67;;;24.10;61.60;;;;;;4972824;28;20042;-59
2023/06/25 03:20:28;;;;;;;3.88;2.78;;;24.10;61.60;;;;;;4972418;28;20043;-60
2023/06/25 03:22:54;;;;;;;3.58;2.58;;;24.10;61.50;;;;;;4972403;28;20367;-60
2023/06/25 03:25:19;;;;;;;3.55;2.63;;;24.10;61.60;;;;;;4972746;28;20116;-60
2023/06/25 03:27:45;;;;;;;3.20;2.28;;;24.10;61.60;;;;;;4973194;28;20098;-60
2023/06/25 03:30:10;;;;;;;3.65;2.58;;;24.10;61.60;;;;;;4972070;28;20043;-59
2023/06/25 03:32:36;;;;;;;3.25;2.25;;;24.10;61.60;;;;;;4972889;28;20130;-59
2023/06/25 03:35:02;;;;;;;4.07;2.70;;;24.10;61.60;;;;;;4972522;28;20054;-60
2023/06/25 03:37:28;;;;;;;3.78;2.50;;;24.10;61.60;;;;;;4972106;28;20487;-59
2023/06/25 03:39:53;;;;;;;3.08;2.45;;;24.00;61.50;;;;;;4972975;28;20126;-60
2023/06/25 03:42:19;;;;;;;4.07;2.78;;;24.10;61.60;;;;;;4973032;28;20042;-60
2023/06/25 03:44:49;;;;;;;3.75;2.50;;;24.10;61.60;;;;;;4972343;28;20043;-59
2023/06/25 03:47:15;;;;;;;3.22;2.53;;;24.00;61.50;;;;;;4973328;28;20509;-60
2023/06/25 03:49:42;;;;;;;4.38;2.40;;;24.00;61.50;;;;;;4973033;28;20047;-60
2023/06/25 03:52:08;;;;;;;3.30;2.50;;;24.00;61.50;;;;;;4971757;28;20054;-60
2023/06/25 03:54:33;;;;;;;4.43;2.80;;;24.00;61.50;;;;;;4972918;28;20043;-60
2023/06/25 03:56:59;;;;;;;3.80;2.60;;;24.10;61.60;;;;;;4972506;28;20043;-60
2023/06/25 03:59:24;;;;;;;3.40;2.50;;;24.00;61.50;;;;;;4972242;28;20117;-59
2023/06/25 04:01:50;;;;;;;4.15;2.40;;;24.00;61.50;;;;;;4976919;28;20126;-59
2023/06/25 04:04:15;;;;;;;4.20;2.53;;;24.00;61.60;;;;;;4978757;28;20375;-59
2023/06/25 04:06:41;;;;;;;3.83;2.60;;;24.00;61.60;;;;;;4974823;28;20129;-59
2023/06/25 04:09:06;;;;;;;3.00;2.25;;;24.00;61.60;;;;;;4975682;28;20051;-60
2023/06/25 04:11:32;;;;;;;4.05;2.80;;;24.00;61.60;;;;;;4975418;28;20051;-60
2023/06/25 04:13:58;;;;;;;3.72;2.65;;;24.00;61.60;;;;;;4976363;28;20050;-59
2023/06/25 04:16:23;;;;;;;3.80;2.70;;;24.00;61.60;;;;;;4976457;28;20078;-58
2023/06/25 04:18:49;;;;;;;4.03;2.78;;;24.00;61.60;;;;;;4975441;28;20089;-59
2023/06/25 04:21:14;;;;;;;4.07;2.95;;;24.00;61.60;;;;;;4976380;28;20398;-59
2023/06/25 04:23:40;;;;;;;3.50;2.60;;;24.00;61.70;;;;;;4976405;28;20562;-58
2023/06/25 04:26:06;;;;;;;4.07;2.60;;;24.00;61.60;;;;;;4975132;28;20486;-59
2023/06/25 04:28:31;;;;;;;3.42;2.58;;;24.00;61.60;;;;;;4976045;28;20085;-59
2023/06/25 04:30:57;;;;;;;3.63;2.60;;;24.00;61.60;;;;;;4975879;28;20495;-59
2023/06/25 04:33:22;;;;;;;4.43;2.72;;;24.00;61.60;;;;;;4975497;28;20118;-59
2023/06/25 04:35:48;;;;;;;4.20;2.45;;;24.00;61.60;;;;;;4975853;28;20053;-59
2023/06/25 04:38:13;;;;;;;3.78;2.90;;;24.00;61.60;;;;;;4975807;28;20051;-60
2023/06/25 04:40:40;;;;;;;3.85;2.60;;;24.00;61.70;;;;;;4975736;28;20062;-60
2023/06/25 04:43:05;;;;;;;3.60;2.65;;;24.10;61.70;;;;;;4975705;28;20057;-60
2023/06/25 04:45:31;;;;;;;3.65;2.60;;;24.00;61.70;;;;;;4976091;28;20039;-60
2023/06/25 04:47:57;;;;;;;3.53;2.67;;;24.00;61.60;;;;;;4974577;28;20486;-60
2023/06/25 04:50:22;;;;;;;3.30;2.45;;;24.00;61.60;;;;;;4976086;28;20489;-60
2023/06/25 04:52:48;;;;;;;4.50;3.03;;;24.00;61.60;;;;;;4975856;28;20149;-59
2023/06/25 04:55:14;;;;;;;3.58;2.53;;;24.00;61.60;;;;;;4975104;28;20065;-60
2023/06/25 04:57:39;;;;;;;3.75;2.72;;;24.00;61.60;;;;;;4975834;28;20054;-60
2023/06/25 05:00:05;;;;;;;3.88;2.50;;;24.00;61.60;;;;;;4975543;28;20082;-59
2023/06/25 05:02:31;;;;;;;3.58;2.63;;;24.10;61.70;;;;;;4974853;28;20105;-59
2023/06/25 05:04:57;;;;;;;3.80;2.53;;;24.10;61.70;;;;;;4983124;28;20039;-60
2023/06/25 05:07:22;;;;;;;4.13;2.78;;;24.10;61.70;;;;;;4989420;28;20424;-59
2023/06/25 05:09:48;;;;;;;4.20;2.83;;;24.00;61.60;;;;;;4974254;28;20130;-60
2023/06/25 05:12:13;;;;;;;4.82;3.05;;;24.10;61.70;;;;;;4986929;28;20104;-59
2023/06/25 05:14:39;;;;;;;3.92;2.83;;;24.10;61.70;;;;;;4993660;28;20081;-60
2023/06/25 05:17:05;;;;;;;4.30;2.75;;;24.10;61.70;;;;;;4994485;28;20042;-60
2023/06/25 05:19:30;;;;;;;3.47;2.53;;;24.00;61.60;;;;;;4993858;28;20152;-59
2023/06/25 05:21:56;;;;;;;3.80;2.63;;;24.10;61.70;;;;;;4993953;28;20080;-59
2023/06/25 05:24:21;;;;;;;4.47;3.00;;;24.10;61.70;;;;;;4994170;28;20042;-59
2023/06/25 05:26:47;;;;;;;3.83;2.72;;;24.10;61.70;;;;;;4994482;28;20129;-60
2023/06/25 05:29:13;;;;;;;3.30;2.30;;;24.10;61.70;;;;;;4993725;28;20045;-60
2023/06/25 05:31:38;;;;;;;3.58;2.28;;;24.10;61.70;;;;;;4994012;28;20031;-60
2023/06/25 05:34:04;;;;;;;4.03;2.47;;;24.10;61.70;;;;;;4993710;28;20108;-60
2023/06/25 05:36:30;;;;;;;3.88;2.70;;;24.10;61.70;;;;;;4993451;28;20050;-59
2023/06/25 05:38:55;;;;;;;4.00;2.60;;;24.10;61.70;;;;;;4993951;28;20050;-59
2023/06/25 05:41:24;;;;;;;3.88;2.50;;;24.10;61.70;;;;;;4994424;28;20050;-59
2023/06/25 05:43:49;;;;;;;3.97;2.70;;;24.10;61.60;;;;;;4992879;28;20061;-59
2023/06/25 05:46:15;;;;;;;3.80;2.58;;;24.10;61.70;;;;;;4994385;28;20467;-59
2023/06/25 05:48:41;;;;;;;4.18;3.20;;;24.10;61.60;;;;;;4993936;28;20046;-59
2023/06/25 05:51:06;;;;;;;3.60;2.40;;;24.10;61.70;;;;;;4993263;28;20052;-59
2023/06/25 05:53:40;;;;;;;4.03;2.63;;;24.10;61.60;;;;;;4993551;28;20042;-59
2023/06/25 05:56:05;;;;;;;3.97;2.58;;;24.10;61.70;;;;;;4993861;28;20046;-59
2023/06/25 05:58:32;;;;;;;3.40;2.58;;;24.10;61.70;;;;;;4992849;28;20057;-61
2023/06/25 06:00:57;;;;;;;3.83;2.60;;;24.10;61.70;;;;;;4993370;28;20051;-63
2023/06/25 06:03:23;;;;;;;6.30;3.83;;;24.10;61.60;;;;;;4988603;28;20494;-61
2023/06/25 06:05:49;;;;;;;13.25;9.38;;;24.10;61.60;;;;;;4973132;28;20126;-61
2023/06/25 06:08:14;;;;;;;14.38;8.43;;;24.00;61.60;;;;;;4974303;28;20079;-62
2023/06/25 06:10:40;;;;;;;14.82;9.50;;;24.00;61.80;;;;;;4973720;28;20102;-61
2023/06/25 06:13:05;;;;;;;14.60;9.95;;;24.00;62.00;;;;;;4972608;28;20354;-61
2023/06/25 06:15:31;;;;;;;13.27;9.88;;;24.00;62.00;;;;;;4974236;28;20035;-61
2023/06/25 06:17:57;;;;;;;15.88;10.52;;;24.00;62.20;;;;;;4973014;28;20051;-62
2023/06/25 06:20:22;;;;;;;14.27;10.23;;;23.90;62.20;;;;;;4973844;28;20069;-62
2023/06/25 06:22:48;;;;;;;15.80;10.35;;;23.90;62.40;;;;;;4973757;28;20129;-61
2023/06/25 06:25:13;;;;;;;12.88;9.13;;;23.90;62.40;;;;;;4972942;28;20039;-61
2023/06/25 06:27:39;;;;;;;14.07;9.18;;;23.90;62.70;;;;;;4976839;28;20391;-61
2023/06/25 06:30:05;;;;;;;15.43;10.57;;;23.90;62.80;;;;;;4989378;28;20173;-60
2023/06/25 06:32:31;;;;;;;15.02;10.65;;;23.90;62.80;;;;;;4990454;28;20044;-62
2023/06/25 06:34:56;;;;;;;17.05;11.70;;;23.90;62.80;;;;;;4991141;28;20121;-62
2023/06/25 06:37:22;;;;;;;17.88;11.25;;;23.90;63.00;;;;;;4992407;28;20058;-62
2023/06/25 06:39:48;;;;;;;12.88;9.60;;;23.90;63.10;;;;;;4976824;28;20047;-61
2023/06/25 06:42:13;;;;;;;14.75;10.13;;;23.80;63.10;;;;;;4973383;28;20045;-62
2023/06/25 06:44:39;;;;;;;16.08;10.52;;;23.80;63.20;;;;;;4971905;28;20110;-61
2023/06/25 06:47:04;;;;;;;13.45;9.27;;;23.80;63.20;;;;;;4971940;28;20113;-61
2023/06/25 06:49:30;;;;;;;15.68;10.68;;;23.80;63.30;;;;;;4972872;28;20101;-62
2023/06/25 06:51:56;;;;;;;13.82;9.15;;;23.80;63.40;;;;;;4973185;28;20466;-61
2023/06/25 06:54:21;;;;;;;11.95;8.85;;;23.80;63.50;;;;;;4972498;28;20133;-61
2023/06/25 06:56:47;;;;;;;19.27;10.15;;;23.80;63.50;;;;;;4973050;28;20071;-62
2023/06/25 06:59:12;;;;;;;17.25;10.20;;;23.90;63.60;;;;;;4973430;28;20105;-62
2023/06/25 07:01:38;;;;;;;15.32;10.05;;;23.90;63.70;;;;;;4972286;28;20051;-61
2023/06/25 07:04:04;;;;;;;13.40;9.70;;;23.90;63.80;;;;;;4972750;28;20049;-61
2023/06/25 07:06:29;;;;;;;14.90;10.05;;;23.90;63.90;;;;;;4973109;28;20042;-61
2023/06/25 07:08:55;;;;;;;16.20;9.98;;;23.90;64.00;;;;;;4971931;28;20201;-61
2023/06/25 07:11:20;;;;;;;17.67;10.82;;;23.90;64.00;;;;;;4972792;28;20043;-61
2023/06/25 07:13:47;;;;;;;15.10;11.10;;;23.90;64.10;;;;;;4971566;28;20177;-61
2023/06/25 07:16:12;;;;;;;16.65;11.18;;;23.90;64.30;;;;;;4972117;28;20046;-61
2023/06/25 07:18:38;;;;;;;13.98;11.32;;;23.90;64.40;;;;;;4973036;28;20046;-61
2023/06/25 07:21:05;;;;;;;16.02;10.98;;;23.90;64.60;;;;;;4972802;28;20098;-61
2023/06/25 07:23:31;;;;;;;13.65;11.35;;;24.00;64.70;;;;;;4972042;28;20046;-61
2023/06/25 07:25:57;;;;;;;14.18;11.13;;;24.00;64.70;;;;;;4972880;28;20039;-60
2023/06/25 07:28:22;;;;;;;14.25;10.18;;;24.00;64.80;;;;;;4971943;28;20486;-61
2023/06/25 07:30:48;;;;;;;13.32;10.77;;;24.00;64.80;;;;;;4976330;28;20042;-62
2023/06/25 07:33:13;;;;;;;13.52;10.90;;;24.00;64.80;;;;;;4992568;28;20057;-59
2023/06/25 07:35:39;;;;;;;14.32;10.27;;;24.00;64.90;;;;;;4973186;28;20043;-59
2023/06/25 07:38:05;;;;;;;13.45;9.40;;;24.00;64.90;;;;;;4973644;28;20530;-59
2023/06/25 07:40:30;;;;;;;12.18;8.88;;;24.00;64.90;;;;;;4976878;28;20058;-59
2023/06/25 07:42:56;;;;;;;10.63;9.00;;;24.00;64.80;;;;;;4975590;28;20039;-59
2023/06/25 07:45:21;;;;;;;12.50;9.07;;;24.00;64.80;;;;;;4976759;28;20042;-59
2023/06/25 07:47:47;;;;;;;11.48;9.23;;;24.00;64.70;;;;;;4976406;28;20482;-59
2023/06/25 07:50:13;;;;;;;11.30;8.40;;;24.10;64.70;;;;;;4975941;28;20142;-59
2023/06/25 07:52:38;;;;;;;12.02;8.52;;;24.10;64.70;;;;;;4976646;28;20541;-59
2023/06/25 07:55:04;;;;;;;13.18;8.60;;;24.10;64.60;;;;;;4975983;28;20045;-59
2023/06/25 07:57:30;;;;;;;11.65;8.35;;;24.10;64.60;;;;;;4975505;28;20133;-59
2023/06/25 07:59:55;;;;;;;11.50;8.40;;;24.10;64.70;;;;;;4976146;28;20087;-59
2023/06/25 08:02:21;;;;;;;10.35;7.85;;;24.20;64.80;;;;;;4976226;28;20130;-59
2023/06/25 08:04:47;;;;;;;11.32;7.45;;;24.10;65.30;;;;;;4975462;28;20039;-59
2023/06/25 08:07:13;;;;;;;10.25;7.53;;;24.20;64.80;;;;;;4976430;28;20054;-58
2023/06/25 08:09:40;;;;;;;11.15;7.25;;;24.20;64.80;;;;;;4976439;28;20030;-59
2023/06/25 08:12:06;;;;;;;12.00;7.93;;;24.20;64.80;;;;;;4975408;28;20050;-59
2023/06/25 08:14:31;;;;;;;10.50;7.15;;;24.20;64.80;;;;;;4976206;28;20050;-59
2023/06/25 08:16:57;;;;;;;9.60;6.88;;;24.20;64.90;;;;;;4976048;28;20074;-59
2023/06/25 08:19:22;;;;;;;9.75;7.25;;;24.20;64.80;;;;;;4974281;28;20109;-59
2023/06/25 08:21:48;;;;;;;11.20;6.82;;;24.20;64.80;;;;;;4975828;28;20449;-59
2023/06/25 08:24:13;;;;;;;10.18;7.13;;;24.30;64.80;;;;;;4976022;28;20046;-59
2023/06/25 08:26:39;;;;;;;10.20;6.78;;;24.20;64.80;;;;;;4975175;28;20039;-59
2023/06/25 08:29:05;;;;;;;9.48;6.80;;;24.30;64.90;;;;;;4978489;28;20094;-59
2023/06/25 08:31:30;;;;;;;8.90;6.50;;;24.30;65.00;;;;;;4983644;28;20085;-58
2023/06/25 08:33:56;;;;;;;11.50;7.07;;;24.30;65.00;;;;;;4978942;28;20046;-58
2023/06/25 08:36:22;;;;;;;10.43;6.50;;;24.30;65.00;;;;;;4982796;28;20060;-59
2023/06/25 08:38:47;;;;;;;10.10;6.78;;;24.30;65.00;;;;;;4979306;28;20065;-58
2023/06/25 08:41:13;;;;;;;8.73;6.95;;;24.30;64.90;;;;;;4980785;28;20135;-59
2023/06/25 08:43:39;;;;;;;9.73;6.68;;;24.40;65.00;;;;;;4984087;28;20034;-59
2023/06/25 08:46:07;;;;;;;9.52;6.57;;;24.40;64.90;;;;;;4982073;28;20047;-59
2023/06/25 08:48:33;;;;;;;12.05;6.68;;;24.40;65.00;;;;;;4983477;28;20507;-59
2023/06/25 08:51:02;;;;;;;9.20;6.80;;;24.50;65.00;;;;;;4981677;28;20364;-58
2023/06/25 08:53:28;;;;;;;8.45;6.65;;;24.40;65.00;;;;;;4982670;28;20050;-59
2023/06/25 08:55:55;;;;;;;10.15;7.00;;;24.50;65.00;;;;;;4982227;28;20034;-58
2023/06/25 08:58:21;;;;;;;9.30;6.57;;;24.50;65.00;;;;;;4981422;28;20042;-59
2023/06/25 09:00:47;;;;;;;8.95;6.60;;;24.50;65.00;;;;;;4981052;28;20083;-58
2023/06/25 09:03:13;;;;;;;11.07;6.95;;;24.50;65.20;;;;;;4980819;28;20133;-59
2023/06/25 09:05:39;;;;;;;10.45;7.03;;;24.50;65.50;;;;;;4981656;28;20122;-59
2023/06/25 09:08:05;;;;;;;10.13;7.25;;;24.50;65.50;;;;;;4982455;28;20486;-58
2023/06/25 09:10:31;;;;;;;9.90;6.60;;;24.60;65.60;;;;;;4983516;28;20042;-58
2023/06/25 09:12:59;;;;;;;9.35;6.63;;;24.60;65.70;;;;;;4978848;28;20069;-58
2023/06/25 09:15:25;;;;;;;12.55;6.97;;;24.70;65.80;;;;;;4955263;28;20085;-57
2023/06/25 09:17:55;;;;;;;10.20;6.43;;;24.60;65.80;;;;;;4980265;28;20065;-58
2023/06/25 09:20:20;;;;;;;10.60;6.93;;;24.70;66.50;;;;;;4981116;28;20510;-58
2023/06/25 09:22:53;;;;;;;10.15;6.82;;;24.70;65.90;;;;;;4977948;28;20066;-58
2023/06/25 09:25:20;;;;;;;10.93;7.03;;;24.70;65.90;;;;;;4982847;28;20134;-58
2023/06/25 09:27:47;;;;;;;9.25;7.22;;;24.70;65.90;;;;;;4980771;28;20050;-58
2023/06/25 09:30:13;;;;;;;8.05;6.70;;;24.70;65.90;;;;;;4979657;28;20070;-58
2023/06/25 09:33:09;;;;;;;11.30;6.60;;;24.70;65.90;;;;;;4980816;28;20482;-58
2023/06/25 09:35:34;;;;;;;7.82;6.40;;;24.70;65.90;;;;;;4966572;28;20454;-58
2023/06/25 09:38:00;;;;;;;12.57;7.00;;;24.80;66.00;;;;;;4981087;28;20498;-59
2023/06/25 09:40:26;;;;;;;11.65;6.53;;;24.80;66.10;;;;;;4980515;28;20096;-58
2023/06/25 09:42:56;;;;;;;11.35;6.80;;;24.80;66.20;;;;;;4977968;28;20203;-58
2023/06/25 09:45:22;;;;;;;12.30;6.50;;;24.80;66.20;;;;;;4978754;28;20058;-58
2023/06/25 09:47:48;;;;;;;10.73;6.38;;;24.80;66.20;;;;;;4980561;28;20513;-59
2023/06/25 09:50:19;;;;;;;11.52;7.07;;;24.80;66.20;;;;;;4979113;28;20394;-58
2023/06/25 09:52:58;;;;;;;8.38;6.65;;;24.80;66.20;;;;;;4981869;28;20042;-59
2023/06/25 09:55:25;;;;;;;10.75;6.57;;;24.80;66.10;;;;;;4980869;28;20553;-60
2023/06/25 09:57:50;;;;;;;11.88;6.68;;;24.80;65.90;;;;;;4977965;28;20372;-59
2023/06/25 10:00:18;;;;;;;12.77;6.43;;;24.80;65.80;;;;;;4980623;28;20583;-59
2023/06/25 10:02:46;;;;;;;10.80;7.13;;;24.80;65.90;;;;;;4986632;28;20105;-58
2023/06/25 10:05:12;;;;;;;8.32;6.40;;;24.80;65.90;;;;;;4979553;28;20101;-59
2023/06/25 10:07:38;;;;;;;13.88;6.85;;;24.90;66.10;;;;;;4981215;28;20499;-60
2023/06/25 10:10:05;;;;;;;10.55;6.15;;;24.90;66.10;;;;;;4979081;28;20105;-57
2023/06/25 10:12:36;;;;;;;9.85;6.43;;;24.90;66.20;;;;;;4979201;28;20506;-58
2023/06/25 10:15:05;;;;;;;10.18;6.35;;;24.90;66.10;;;;;;4975910;28;20486;-59
2023/06/25 10:17:31;;;;;;;9.18;6.38;;;24.90;66.10;;;;;;4978869;28;20046;-59
2023/06/25 10:19:58;;;;;;;8.98;6.18;;;24.90;66.00;;;;;;4980301;28;20046;-58
2023/06/25 10:22:24;;;;;;;8.38;6.35;;;24.90;66.00;;;;;;4981313;28;20165;-58
2023/06/25 10:24:54;;;;;;;10.60;6.45;;;24.90;65.90;;;;;;4979571;28;20078;-58
2023/06/25 10:27:25;;;;;;;8.75;6.45;;;24.90;65.90;;;;;;4978933;28;20165;-58
2023/06/25 10:29:54;;;;;;;10.07;6.47;;;25.00;66.00;;;;;;4977166;28;20087;-58
2023/06/25 10:32:28;;;;;;;9.00;6.45;;;24.90;65.90;;;;;;4979669;28;20074;-58
2023/06/25 10:35:00;;;;;;;8.65;6.28;;;25.00;65.80;;;;;;4978017;28;20066;-58
2023/06/25 10:37:30;;;;;;;9.57;6.40;;;25.00;65.80;;;;;;4982017;28;20110;-58
2023/06/25 10:40:05;;;;;;;8.65;5.95;;;25.00;65.80;;;;;;4978024;28;20462;-57
2023/06/25 10:42:35;;;;;;;9.38;6.43;;;25.00;65.80;;;;;;4978295;28;20042;-59
2023/06/25 10:45:00;;;;;;;10.55;6.40;;;25.00;65.70;;;;;;4989332;28;20157;-59
2023/06/25 10:47:26;;;;;;;8.20;6.20;;;25.00;65.60;;;;;;4972267;28;20125;-59
2023/06/25 10:49:51;;;;;;;9.80;6.10;;;25.00;65.50;;;;;;4973396;28;20047;-59
2023/06/25 10:52:17;;;;;;;8.82;6.18;;;25.00;65.40;;;;;;4972558;28;20043;-59
2023/06/25 10:54:43;;;;;;;9.48;6.60;;;25.00;65.20;;;;;;4981105;28;20057;-59
2023/06/25 10:57:09;;;;;;;9.00;5.97;;;25.10;65.30;;;;;;4991942;28;20038;-59
2023/06/25 10:59:35;;;;;;;8.13;5.93;;;25.10;65.20;;;;;;4992139;28;20046;-59
2023/06/25 11:02:21;;;;;;;8.60;6.00;;;25.10;65.10;;;;;;4972782;28;20411;-59
2023/06/25 11:04:56;;;;;;;8.65;6.25;;;25.10;65.00;;;;;;4973107;28;20039;-59
2023/06/25 11:07:22;;;;;;;7.93;6.47;;;25.10;65.00;;;;;;4974533;28;20525;-58
2023/06/25 11:09:54;;;;;;;8.90;5.93;;;25.10;65.00;;;;;;4979398;28;20057;-59
2023/06/25 11:12:20;;;;;;;8.52;6.18;;;25.10;65.00;;;;;;4976591;28;20043;-59
2023/06/25 11:14:49;;;;;;;11.10;5.90;;;25.10;65.00;;;;;;4980674;28;20053;-59
2023/06/25 11:17:15;;;;;;;8.63;6.30;;;25.10;65.00;;;;;;4977036;28;20510;-58
2023/06/25 11:19:41;;;;;;;9.75;6.10;;;25.10;65.10;;;;;;4979149;28;20498;-58
2023/06/25 11:22:07;;;;;;;10.27;6.30;;;25.10;65.10;;;;;;4979693;28;20074;-58
2023/06/25 11:24:36;;;;;;;9.30;6.30;;;25.10;65.10;;;;;;4978211;28;20050;-58
2023/06/25 11:27:01;;;;;;;8.50;5.88;;;25.10;65.10;;;;;;4980374;28;20146;-58
2023/06/25 11:29:37;;;;;;;9.27;6.45;;;25.10;65.10;;;;;;4980076;28;20471;-58
2023/06/25 11:32:08;;;;;;;8.88;6.25;;;25.10;65.10;;;;;;4976698;28;20209;-58
2023/06/25 11:34:42;;;;;;;10.70;6.28;;;25.20;65.10;;;;;;4979386;28;20500;-59
2023/06/25 11:37:15;;;;;;;8.73;5.80;;;25.10;65.10;;;;;;4976612;28;20050;-58
2023/06/25 11:39:49;;;;;;;6.60;5.30;;;25.20;65.70;;;;;;4978512;28;20102;-59
2023/06/25 11:42:19;;;;;;;8.27;5.90;;;25.20;65.00;;;;;;4980659;28;20034;-59
2023/06/25 11:44:45;;;;;;;8.73;5.97;;;25.20;65.00;;;;;;4981806;28;20045;-59
2023/06/25 11:47:13;;;;;;;8.77;5.80;;;25.20;65.00;;;;;;4977216;28;20047;-58
2023/06/25 11:49:39;;;;;;;8.88;5.65;;;25.20;65.00;;;;;;4977586;28;20398;-59
2023/06/25 11:52:05;;;;;;;9.77;5.38;;;25.20;64.90;;;;;;4981789;28;20043;-59
2023/06/25 11:54:31;;;;;;;7.18;5.38;;;25.20;64.90;;;;;;4976381;28;20039;-58
2023/06/25 11:56:56;;;;;;;8.73;5.65;;;25.20;64.90;;;;;;4978530;28;20049;-58
2023/06/25 11:59:22;;;;;;;8.60;5.88;;;25.20;64.90;;;;;;4977310;28;20491;-57
2023/06/25 12:01:48;;;;;;;7.25;5.50;;;25.20;64.90;;;;;;4977232;28;20047;-58
2023/06/25 12:04:13;;;;;;;8.25;5.78;;;25.20;64.90;;;;;;4977441;28;20043;-58
2023/06/25 12:06:39;;;;;;;7.30;5.78;;;25.20;64.90;;;;;;4980978;28;20038;-58
2023/06/25 12:09:05;;;;;;;7.82;5.47;;;25.20;64.90;;;;;;4977103;28;20047;-58
2023/06/25 12:11:30;;;;;;;7.00;5.18;;;25.20;64.90;;;;;;4977579;28;20085;-58
2023/06/25 12:13:56;;;;;;;8.32;5.75;;;25.20;64.90;;;;;;4977029;28;20042;-57
2023/06/25 12:16:22;;;;;;;7.95;5.72;;;25.30;64.90;;;;;;4980245;28;20038;-58
2023/06/25 12:18:47;;;;;;;6.80;5.55;;;25.30;64.90;;;;;;4975671;28;20573;-58
2023/06/25 12:21:13;;;;;;;9.32;5.50;;;25.30;64.90;;;;;;4977460;28;20050;-58
2023/06/25 12:23:38;;;;;;;8.70;5.28;;;25.30;64.90;;;;;;4981181;28;20489;-58
2023/06/25 12:26:04;;;;;;;7.22;5.18;;;25.30;64.90;;;;;;4980544;28;20113;-58
2023/06/25 12:28:30;;;;;;;9.05;5.60;;;25.30;64.90;;;;;;4981127;28;20105;-58
2023/06/25 12:30:55;;;;;;;7.57;5.00;;;25.30;64.80;;;;;;4981233;28;21140;-58
2023/06/25 12:33:21;;;;;;;8.13;5.63;;;25.30;64.80;;;;;;4984337;28;20081;-58
2023/06/25 12:35:47;;;;;;;6.65;5.13;;;25.30;64.80;;;;;;4980202;28;20042;-59
2023/06/25 12:38:12;;;;;;;7.57;5.28;;;25.30;64.70;;;;;;4981688;28;20057;-59